Observation data for Reese Center on 05/16/2018      Previous  Date  Next       Current Mesonet Observations  Soil Data  Daily Summary Page  Observations in Plain Language
KREE 160500Z 09009G16KT 19/12 A3002 RMK A01 T01860124  RH  068%=      5-min Rain = 0
KREE 160505Z 10014KT 19/12 A3002 RMK A01 T01910119  RH  064%=      5-min Rain = 0
KREE 160510Z 11013KT 19/12 A3002 RMK A01 T01910120  RH  065%=      5-min Rain = 0
KREE 160515Z 11012KT 19/12 A3002 RMK A01 T01890118  RH  065%=      5-min Rain = 0
KREE 160520Z 12012KT 19/12 A3002 RMK A01 T01910116  RH  063%=      5-min Rain = 0
KREE 160525Z 12014KT 19/11 A3002 RMK A01 T01930114  RH  061%=      5-min Rain = 0
KREE 160530Z 12016G21KT 19/11 A3002 RMK A01 T01930113  RH  061%=      5-min Rain = 0
KREE 160535Z 12016G22KT 19/11 A3002 RMK A01 T01940113  RH  060%=      5-min Rain = 0
KREE 160540Z 12018KT 19/11 A3002 RMK A01 T01940114  RH  061%=      5-min Rain = 0
KREE 160545Z 12017KT 19/12 A3001 RMK A01 T01930115  RH  062%=      5-min Rain = 0
KREE 160550Z 12017KT 19/12 A3001 RMK A01 T01920116  RH  063%=      5-min Rain = 0
KREE 160555Z 11016KT 19/12 A3001 RMK A01 T01920117  RH  063%=      5-min Rain = 0
KREE 160600Z 11014KT 19/12 A3001 RMK A01 T01910118  RH  064%=      5-min Rain = 0
KREE 160605Z 12013G18KT 19/12 A3001 RMK A01 T01890119  RH  065%=      5-min Rain = 0
KREE 160610Z 12015KT 19/12 A3002 RMK A01 T01890120  RH  065%=      5-min Rain = 0
KREE 160615Z 12013KT 19/12 A3002 RMK A01 T01880121  RH  066%=      5-min Rain = 0
KREE 160620Z 12013KT 19/12 A3002 RMK A01 T01870122  RH  067%=      5-min Rain = 0
KREE 160625Z 13013KT 19/12 A3002 RMK A01 T01860123  RH  068%=      5-min Rain = 0
KREE 160630Z 13013KT 19/12 A3001 RMK A01 T01850123  RH  069%=      5-min Rain = 0
KREE 160635Z 13016KT 18/13 A3001 RMK A01 T01840125  RH  070%=      5-min Rain = 0
KREE 160640Z 13016KT 18/13 A3001 RMK A01 T01820127  RH  072%=      5-min Rain = 0
KREE 160645Z 13019KT 18/13 A3001 RMK A01 T01810130  RH  073%=      5-min Rain = 0
KREE 160650Z 14019KT 18/13 A30 RMK A01 T01810131  RH  074%=      5-min Rain = 0
KREE 160655Z 14019G24KT 18/13 A30 RMK A01 T01810133  RH  075%=      5-min Rain = 0
KREE 160700Z 14020G27KT 18/13 A30 RMK A01 T01820134  RH  075%=      5-min Rain = 0
KREE 160705Z 14020G25KT 18/14 A2999 RMK A01 T01820135  RH  075%=      5-min Rain = 0
KREE 160710Z 14020G27KT 18/14 A2999 RMK A01 T01820135  RH  075%=      5-min Rain = 0
KREE 160715Z 14018KT 18/13 A2999 RMK A01 T01810134  RH  076%=      5-min Rain = 0
KREE 160720Z 14019KT 18/13 A2999 RMK A01 T01800134  RH  076%=      5-min Rain = 0
KREE 160725Z 14018KT 18/13 A2998 RMK A01 T01780134  RH  077%=      5-min Rain = 0
KREE 160730Z 14017KT 18/13 A2999 RMK A01 T01780134  RH  077%=      5-min Rain = 0
KREE 160735Z 14016KT 18/13 A2999 RMK A01 T01770134  RH  078%=      5-min Rain = 0
KREE 160740Z 14016KT 18/13 A2998 RMK A01 T01760134  RH  078%=      5-min Rain = 0
KREE 160745Z 15016KT 18/13 A2998 RMK A01 T01750134  RH  078%=      5-min Rain = 0
KREE 160750Z 14016G21KT 18/14 A2998 RMK A01 T01750135  RH  079%=      5-min Rain = 0
KREE 160755Z 14015KT 17/14 A2997 RMK A01 T01740135  RH  079%=      5-min Rain = 0
KREE 160800Z 15015KT 17/14 A2997 RMK A01 T01740135  RH  079%=      5-min Rain = 0
KREE 160805Z 15015KT 17/14 A2997 RMK A01 T01740135  RH  080%=      5-min Rain = 0
KREE 160810Z 15015G20KT 17/14 A2997 RMK A01 T01730136  RH  080%=      5-min Rain = 0
KREE 160815Z 15016KT 17/14 A2997 RMK A01 T01740136  RH  080%=      5-min Rain = 0
KREE 160820Z 15016KT 17/14 A2997 RMK A01 T01730136  RH  080%=      5-min Rain = 0
KREE 160825Z 15016G22KT 17/14 A2997 RMK A01 T01730136  RH  081%=      5-min Rain = 0
KREE 160830Z 14015KT 17/14 A2998 RMK A01 T01730136  RH  081%=      5-min Rain = 0
KREE 160835Z 14014G19KT 17/14 A2998 RMK A01 T01730137  RH  081%=      5-min Rain = 0
KREE 160840Z 13012KT 17/14 A2999 RMK A01 T01730137  RH  081%=      5-min Rain = 0
KREE 160845Z 08009KT 17/14 A30 RMK A01 T01730137  RH  081%=      5-min Rain = 0
KREE 160850Z 06009KT 17/14 A3001 RMK A01 T01730137  RH  081%=      5-min Rain = 0
KREE 160855Z 07010KT 17/14 A3001 RMK A01 T01740137  RH  080%=      5-min Rain = 0
KREE 160900Z 09008KT 17/14 A3001 RMK A01 T01740137  RH  080%=      5-min Rain = 0
KREE 160905Z 07008KT 17/14 A3001 RMK A01 T01730136  RH  081%=      5-min Rain = 0
KREE 160910Z 06009KT 17/14 A3002 RMK A01 T01720136  RH  081%=      5-min Rain = 0
KREE 160915Z 06008KT 17/14 A3002 RMK A01 T01720135  RH  081%=      5-min Rain = 0
KREE 160920Z 07009KT 17/13 A3001 RMK A01 T01710134  RH  081%=      5-min Rain = 0
KREE 160925Z 07008KT 17/13 A3001 RMK A01 T01680133  RH  081%=      5-min Rain = 0
KREE 160930Z 07009KT 17/13 A3002 RMK A01 T01660133  RH  083%=      5-min Rain = 0
KREE 160935Z 07009KT 17/13 A3001 RMK A01 T01650133  RH  083%=      5-min Rain = 0
KREE 160940Z 08010KT 16/13 A3001 RMK A01 T01630132  RH  083%=      5-min Rain = 0
KREE 160945Z 10010KT 16/13 A3001 RMK A01 T01610132  RH  084%=      5-min Rain = 0
KREE 160950Z 10009KT 16/13 A3001 RMK A01 T01600132  RH  085%=      5-min Rain = 0
KREE 160955Z 06009KT 16/13 A3002 RMK A01 T01600133  RH  085%=      5-min Rain = 0
KREE 161000Z 06010KT 16/13 A3002 RMK A01 T01610133  RH  085%=      5-min Rain = 0
KREE 161005Z 09010KT 16/13 A3001 RMK A01 T01620133  RH  085%=      5-min Rain = 0
KREE 161010Z 12011KT 16/13 A30 RMK A01 T01620133  RH  085%=      5-min Rain = 0
KREE 161015Z 13010KT 16/13 A30 RMK A01 T01630134  RH  085%=      5-min Rain = 0
KREE 161020Z 10006KT 16/14 A3002 RMK A01 T01640135  RH  084%=      5-min Rain = 0
KREE 161025Z 06007KT 17/14 A3003 RMK A01 T01650135  RH  084%=      5-min Rain = 0
KREE 161030Z 10006KT 17/14 A3002 RMK A01 T01650135  RH  084%=      5-min Rain = 0
KREE 161035Z 13010KT 17/14 A30 RMK A01 T01660136  RH  084%=      5-min Rain = 0
KREE 161040Z 15011KT 17/14 A30 RMK A01 T01680135  RH  083%=      5-min Rain = 0
KREE 161045Z 14008KT 17/14 A30 RMK A01 T01680135  RH  083%=      5-min Rain = 0
KREE 161050Z 13007KT 17/14 A3001 RMK A01 T01680136  RH  083%=      5-min Rain = 0
KREE 161055Z 12006KT 17/14 A3001 RMK A01 T01690136  RH  082%=      5-min Rain = 0
KREE 161100Z 12007KT 17/14 A3001 RMK A01 T01690135  RH  082%=      5-min Rain = 0
KREE 161105Z 13008KT 17/14 A3001 RMK A01 T01680135  RH  083%=      5-min Rain = 0
KREE 161110Z 14007KT 17/13 A3001 RMK A01 T01670134  RH  083%=      5-min Rain = 0
KREE 161115Z 13008KT 17/13 A3001 RMK A01 T01650134  RH  083%=      5-min Rain = 0
KREE 161120Z 13009KT 17/13 A3001 RMK A01 T01650134  RH  084%=      5-min Rain = 0
KREE 161125Z 13009KT 16/13 A3001 RMK A01 T01640134  RH  084%=      5-min Rain = 0
KREE 161130Z 11007KT 16/13 A3001 RMK A01 T01640134  RH  084%=      5-min Rain = 0
KREE 161135Z 08006KT 16/13 A3002 RMK A01 T01610133  RH  085%=      5-min Rain = 0
KREE 161140Z 10006KT 16/13 A3002 RMK A01 T01580132  RH  086%=      5-min Rain = 0
KREE 161145Z 12007KT 16/13 A3002 RMK A01 T01580133  RH  086%=      5-min Rain = 0
KREE 161150Z 14008KT 16/13 A3002 RMK A01 T01590132  RH  086%=      5-min Rain = 0
KREE 161155Z 14009KT 16/13 A3002 RMK A01 T01600133  RH  085%=      5-min Rain = 0
KREE 161200Z 15008KT 16/13 A3002 RMK A01 T01600133  RH  085%=      5-min Rain = 0
KREE 161205Z 15007KT 16/13 A3002 RMK A01 T01600133  RH  085%=      5-min Rain = 0
KREE 161210Z 14006KT 16/13 A3003 RMK A01 T01600132  RH  085%=      5-min Rain = 0
KREE 161215Z 11004KT 16/13 A3004 RMK A01 T01600133  RH  085%=      5-min Rain = 0
KREE 161220Z 07004KT 16/13 A3005 RMK A01 T01610132  RH  085%=      5-min Rain = 0
KREE 161225Z 07005KT 16/13 A3005 RMK A01 T01610132  RH  085%=      5-min Rain = 0
KREE 161230Z 07005KT 16/13 A3006 RMK A01 T01620134  RH  085%=      5-min Rain = 0
KREE 161235Z 05006KT 16/13 A3007 RMK A01 T01620134  RH  085%=      5-min Rain = 0
KREE 161240Z 05008KT 16/13 A3008 RMK A01 T01610134  RH  085%=      5-min Rain = 0
KREE 161245Z 05008KT 16/14 A3008 RMK A01 T01620135  RH  086%=      5-min Rain = 0
KREE 161250Z 07008KT 17/14 A3008 RMK A01 T01650137  RH  085%=      5-min Rain = 0
KREE 161255Z 06008KT 17/14 A3009 RMK A01 T01670137  RH  084%=      5-min Rain = 0
KREE 161300Z 05009KT 17/14 A3009 RMK A01 T01670137  RH  084%=      5-min Rain = 0
KREE 161305Z 05010KT 17/14 A301 RMK A01 T01660138  RH  085%=      5-min Rain = 0
KREE 161310Z 07009KT 17/14 A301 RMK A01 T01670138  RH  084%=      5-min Rain = 0
KREE 161315Z 07008KT 17/14 A301 RMK A01 T01690138  RH  083%=      5-min Rain = 0
KREE 161320Z 08010KT 17/14 A301 RMK A01 T01700137  RH  082%=      5-min Rain = 0
KREE 161325Z 08012KT 17/14 A3011 RMK A01 T01710138  RH  082%=      5-min Rain = 0
KREE 161330Z 07012KT 17/14 A3011 RMK A01 T01710140  RH  083%=      5-min Rain = 0
KREE 161335Z 07010KT 17/14 A3011 RMK A01 T01730140  RH  083%=      5-min Rain = 0
KREE 161340Z 07010KT 18/14 A3011 RMK A01 T01750141  RH  082%=      5-min Rain = 0
KREE 161345Z 08010KT 18/14 A3011 RMK A01 T01760140  RH  082%=      5-min Rain = 0
KREE 161350Z 08012KT 18/14 A3011 RMK A01 T01760139  RH  081%=      5-min Rain = 0
KREE 161355Z 09011KT 18/14 A3011 RMK A01 T01770139  RH  080%=      5-min Rain = 0
KREE 161400Z 09011KT 18/14 A3011 RMK A01 T01770139  RH  080%=      5-min Rain = 0
KREE 161405Z 10012KT 18/14 A3011 RMK A01 T01790139  RH  079%=      5-min Rain = 0
KREE 161410Z 10011KT 18/14 A3011 RMK A01 T01790139  RH  079%=      5-min Rain = 0
KREE 161415Z 10011KT 18/14 A3011 RMK A01 T01810140  RH  079%=      5-min Rain = 0
KREE 161420Z 11010KT 18/14 A301 RMK A01 T01830139  RH  077%=      5-min Rain = 0
KREE 161425Z 12007KT 19/14 A301 RMK A01 T01850139  RH  076%=      5-min Rain = 0
KREE 161430Z 15007KT 19/14 A3011 RMK A01 T01880138  RH  074%=      5-min Rain = 0
KREE 161435Z 14009KT 20/14 A3011 RMK A01 T01950137  RH  071%=      5-min Rain = 0
KREE 161440Z 16009KT 20/14 A3011 RMK A01 T01980136  RH  069%=      5-min Rain = 0
KREE 161445Z 15011KT 20/13 A3011 RMK A01 T02000134  RH  067%=      5-min Rain = 0
KREE 161450Z 15013KT 20/13 A3011 RMK A01 T02040132  RH  065%=      5-min Rain = 0
KREE 161455Z 15010KT 21/13 A3011 RMK A01 T02050133  RH  065%=      5-min Rain = 0
KREE 161500Z 15011KT 21/13 A3011 RMK A01 T02120133  RH  062%=      5-min Rain = 0
KREE 161505Z 16012KT 21/13 A3012 RMK A01 T02120131  RH  061%=      5-min Rain = 0
KREE 161510Z 16012KT 21/13 A3011 RMK A01 T02080132  RH  063%=      5-min Rain = 0
KREE 161515Z 17015G21KT 21/13 A3011 RMK A01 T02130130  RH  060%=      5-min Rain = 0
KREE 161520Z 17015G20KT 21/13 A3011 RMK A01 T02090128  RH  061%=      5-min Rain = 0
KREE 161525Z 17016KT 21/13 A3011 RMK A01 T02070129  RH  062%=      5-min Rain = 0
KREE 161530Z 17017G22KT 21/13 A3011 RMK A01 T02100129  RH  061%=      5-min Rain = 0
KREE 161535Z 17017G22KT 22/13 A301 RMK A01 T02160130  RH  059%=      5-min Rain = 0
KREE 161540Z 17017G22KT 22/13 A301 RMK A01 T02190130  RH  058%=      5-min Rain = 0
KREE 161545Z 17016KT 22/13 A301 RMK A01 T02200131  RH  058%=      5-min Rain = 0
KREE 161550Z 17017G23KT 22/13 A3009 RMK A01 T02230128  RH  056%=      5-min Rain = 0
KREE 161555Z 17018G23KT 23/13 A3009 RMK A01 T02260125  RH  054%=      5-min Rain = 0
KREE 161600Z 18017G22KT 23/12 A3009 RMK A01 T02300121  RH  051%=      5-min Rain = 0
KREE 161605Z 17019G25KT 23/11 A3008 RMK A01 T02320112  RH  048%=      5-min Rain = 0
KREE 161610Z 18019KT 23/11 A3008 RMK A01 T02340112  RH  047%=      5-min Rain = 0
KREE 161615Z 18019G25KT 24/11 A3008 RMK A01 T02400112  RH  045%=      5-min Rain = 0
KREE 161620Z 17019G28KT 24/11 A3008 RMK A01 T02420109  RH  044%=      5-min Rain = 0
KREE 161625Z 17021G29KT 24/11 A3008 RMK A01 T02440105  RH  042%=      5-min Rain = 0
KREE 161630Z 17021KT 24/11 A3008 RMK A01 T02440106  RH  042%=      5-min Rain = 0
KREE 161635Z 17020G25KT 25/11 A3008 RMK A01 T02460105  RH  042%=      5-min Rain = 0
KREE 161640Z 17020G26KT 25/10 A3008 RMK A01 T02500104  RH  041%=      5-min Rain = 0
KREE 161645Z 16021G27KT 25/10 A3007 RMK A01 T02510102  RH  040%=      5-min Rain = 0
KREE 161650Z 16022G29KT 25/10 A3007 RMK A01 T02530102  RH  039%=      5-min Rain = 0
KREE 161655Z 17021G26KT 26/10 A3008 RMK A01 T02560100  RH  038%=      5-min Rain = 0
KREE 161700Z 17021G28KT 26/10 A3008 RMK A01 T02550100  RH  038%=      5-min Rain = 0
KREE 161705Z 17018G24KT 26/10 A3008 RMK A01 T02600097  RH  037%=      5-min Rain = 0
KREE 161710Z 17018G25KT 26/10 A3008 RMK A01 T02620095  RH  036%=      5-min Rain = 0
KREE 161715Z 16018KT 27/10 A3007 RMK A01 T02660095  RH  035%=      5-min Rain = 0
KREE 161720Z 17018G24KT 27/09 A3007 RMK A01 T02690093  RH  033%=      5-min Rain = 0
KREE 161725Z 16020G26KT 27/09 A3007 RMK A01 T02690092  RH  033%=      5-min Rain = 0
KREE 161730Z 16020G26KT 27/10 A3007 RMK A01 T02680095  RH  034%=      5-min Rain = 0
KREE 161735Z 16019G24KT 27/10 A3007 RMK A01 T02710096  RH  034%=      5-min Rain = 0
KREE 161740Z 16020G26KT 27/10 A3006 RMK A01 T02710098  RH  034%=      5-min Rain = 0
KREE 161745Z 16017G24KT 28/10 A3006 RMK A01 T02750100  RH  034%=      5-min Rain = 0
KREE 161750Z 16016G21KT 28/10 A3006 RMK A01 T02770100  RH  034%=      5-min Rain = 0
KREE 161755Z 15018G26KT 28/10 A3005 RMK A01 T02760100  RH  034%=      5-min Rain = 0
KREE 161800Z 14017G24KT 28/10 A3005 RMK A01 T02770100  RH  034%=      5-min Rain = 0
KREE 161805Z 15015G24KT 28/10 A3005 RMK A01 T02780101  RH  034%=      5-min Rain = 0
KREE 161810Z 15016G23KT 28/10 A3004 RMK A01 T02810100  RH  033%=      5-min Rain = 0
KREE 161815Z 15020G27KT 28/10 A3004 RMK A01 T02810100  RH  033%=      5-min Rain = 0
KREE 161820Z 14019G24KT 28/10 A3004 RMK A01 T02820101  RH  033%=      5-min Rain = 0
KREE 161825Z 14019G25KT 28/10 A3004 RMK A01 T02820101  RH  033%=      5-min Rain = 0
KREE 161830Z 15019G26KT 28/10 A3004 RMK A01 T02810101  RH  033%=      5-min Rain = 0
KREE 161835Z 15017G24KT 28/10 A3003 RMK A01 T02830104  RH  033%=      5-min Rain = 0
KREE 161840Z 13018G25KT 28/10 A3003 RMK A01 T02830103  RH  033%=      5-min Rain = 0
KREE 161845Z 14018G29KT 28/10 A3003 RMK A01 T02820102  RH  033%=      5-min Rain = 0
KREE 161850Z 14018G24KT 29/10 A3003 RMK A01 T02880099  RH  031%=      5-min Rain = 0
KREE 161855Z 14018G24KT 29/10 A3003 RMK A01 T02850097  RH  031%=      5-min Rain = 0
KREE 161900Z 15014G21KT 29/10 A3003 RMK A01 T02850096  RH  031%=      5-min Rain = 0
KREE 161905Z 14014G19KT 29/09 A3003 RMK A01 T02860094  RH  031%=      5-min Rain = 0
KREE 161910Z 14015G21KT 29/09 A3003 RMK A01 T02900091  RH  029%=      5-min Rain = 0
KREE 161915Z 14015G23KT 29/09 A3003 RMK A01 T02900089  RH  029%=      5-min Rain = 0
KREE 161920Z 15014G19KT 29/09 A3003 RMK A01 T02930090  RH  029%=      5-min Rain = 0
KREE 161925Z 13018G24KT 29/09 A3002 RMK A01 T02920089  RH  029%=      5-min Rain = 0
KREE 161930Z 15016KT 29/09 A3002 RMK A01 T02920088  RH  028%=      5-min Rain = 0
KREE 161935Z 15014G22KT 29/09 A3002 RMK A01 T02940086  RH  028%=      5-min Rain = 0
KREE 161940Z 17014G22KT 29/09 A3002 RMK A01 T02940085  RH  027%=      5-min Rain = 0
KREE 161945Z 13016KT 29/09 A3002 RMK A01 T02940085  RH  027%=      5-min Rain = 0
KREE 161950Z 12014G20KT 29/08 A3002 RMK A01 T02940084  RH  027%=      5-min Rain = 0
KREE 161955Z 15014G21KT 30/08 A3002 RMK A01 T02970084  RH  027%=      5-min Rain = 0
KREE 162000Z 15017G25KT 30/08 A3001 RMK A01 T03000082  RH  026%=      5-min Rain = 0
KREE 162005Z 15016G22KT 30/08 A3001 RMK A01 T03000080  RH  026%=      5-min Rain = 0
KREE 162010Z 14016G23KT 30/08 A3001 RMK A01 T03020079  RH  025%=      5-min Rain = 0
KREE 162015Z 14017G23KT 30/08 A3001 RMK A01 T03030078  RH  025%=      5-min Rain = 0
KREE 162020Z 14015G24KT 30/08 A30 RMK A01 T03030077  RH  025%=      5-min Rain = 0
KREE 162025Z 14017KT 31/08 A30 RMK A01 T03060075  RH  024%=      5-min Rain = 0
KREE 162030Z 14015G22KT 31/08 A30 RMK A01 T03050075  RH  024%=      5-min Rain = 0
KREE 162035Z 14013G18KT 31/08 A30 RMK A01 T03070076  RH  024%=      5-min Rain = 0
KREE 162040Z 15013KT 31/08 A30 RMK A01 T03080075  RH  024%=      5-min Rain = 0
KREE 162045Z 14013G18KT 31/08 A30 RMK A01 T03100076  RH  024%=      5-min Rain = 0
KREE 162050Z 13015G22KT 31/07 A2999 RMK A01 T03070074  RH  024%=      5-min Rain = 0
KREE 162055Z 13015G20KT 31/08 A2999 RMK A01 T03080076  RH  024%=      5-min Rain = 0
KREE 162100Z 13013G18KT 31/08 A2999 RMK A01 T03090077  RH  024%=      5-min Rain = 0
KREE 162105Z 15012G20KT 31/08 A2999 RMK A01 T03090080  RH  024%=      5-min Rain = 0
KREE 162110Z 13014G22KT 31/08 A2998 RMK A01 T03100079  RH  024%=      5-min Rain = 0
KREE 162115Z 15015G20KT 31/08 A2998 RMK A01 T03130081  RH  024%=      5-min Rain = 0
KREE 162120Z 15013G19KT 30/08 A2998 RMK A01 T03040080  RH  025%=      5-min Rain = 0
KREE 162125Z 13013KT 30/08 A2997 RMK A01 T03020080  RH  025%=      5-min Rain = 0
KREE 162130Z 14014G20KT 31/08 A2997 RMK A01 T03100084  RH  025%=      5-min Rain = 0
KREE 162135Z 14013G18KT 31/09 A2997 RMK A01 T03120085  RH  025%=      5-min Rain = 0
KREE 162140Z 16012KT 31/08 A2997 RMK A01 T03110081  RH  024%=      5-min Rain = 0
KREE 162145Z 15013G18KT 31/08 A2996 RMK A01 T03140084  RH  024%=      5-min Rain = 0
KREE 162150Z 14012KT 32/09 A2996 RMK A01 T03150087  RH  025%=      5-min Rain = 0
KREE 162155Z 14013G18KT 31/09 A2996 RMK A01 T03140090  RH  025%=      5-min Rain = 0
KREE 162200Z 16013G19KT 31/09 A2996 RMK A01 T03140091  RH  025%=      5-min Rain = 0
KREE 162205Z 16014G22KT 31/09 A2996 RMK A01 T03080087  RH  026%=      5-min Rain = 0
KREE 162210Z 13012G17KT 31/09 A2995 RMK A01 T03110090  RH  026%=      5-min Rain = 0
KREE 162215Z 14011G18KT 31/09 A2995 RMK A01 T03140090  RH  025%=      5-min Rain = 0
KREE 162220Z 14013KT 31/09 A2995 RMK A01 T03100089  RH  026%=      5-min Rain = 0
KREE 162225Z 16008G13KT 31/08 A2995 RMK A01 T03090076  RH  024%=      5-min Rain = 0
KREE 162230Z 18011G21KT 32/07 A2995 RMK A01 T03160069  RH  022%=      5-min Rain = 0
KREE 162235Z 17011G16KT 32/06 A2995 RMK A01 T03220061  RH  020%=      5-min Rain = 0
KREE 162240Z 17009KT 32/06 A2994 RMK A01 T03220058  RH  019%=      5-min Rain = 0
KREE 162245Z 16007G12KT 32/06 A2994 RMK A01 T03210061  RH  020%=      5-min Rain = 0
KREE 162250Z 17009G15KT 32/06 A2994 RMK A01 T03240062  RH  020%=      5-min Rain = 0
KREE 162255Z 18008KT 32/06 A2994 RMK A01 T03200064  RH  020%=      5-min Rain = 0
KREE 162300Z 15008KT 32/07 A2994 RMK A01 T03210065  RH  021%=      5-min Rain = 0
KREE 162305Z 14008G13KT 32/06 A2994 RMK A01 T03200062  RH  020%=      5-min Rain = 0
KREE 162310Z 15007G15KT 32/06 A2994 RMK A01 T03220061  RH  020%=      5-min Rain = 0
KREE 162315Z 16009KT 32/06 A2994 RMK A01 T03230056  RH  019%=      5-min Rain = 0
KREE 162320Z 20009KT 32/05 A2994 RMK A01 T03210052  RH  019%=      5-min Rain = 0
KREE 162325Z 18009KT 32/05 A2993 RMK A01 T03190050  RH  019%=      5-min Rain = 0
KREE 162330Z 19005KT 32/05 A2993 RMK A01 T03230051  RH  018%=      5-min Rain = 0
KREE 162335Z 19008KT 32/05 A2993 RMK A01 T03210048  RH  018%=      5-min Rain = 0
KREE 162340Z 16008KT 32/05 A2993 RMK A01 T03210050  RH  018%=      5-min Rain = 0
KREE 162345Z 13004KT 32/05 A2993 RMK A01 T03190048  RH  018%=      5-min Rain = 0
KREE 162350Z 04001KT 32/05 A2993 RMK A01 T03210048  RH  018%=      5-min Rain = 0
KREE 162355Z 14004KT 33/05 A2992 RMK A01 T03250050  RH  018%=      5-min Rain = 0
KREE 170000Z 16002KT 33/05 A2992 RMK A01 T03270048  RH  018%=      5-min Rain = 0
KREE 170005Z 19004KT 33/04 A2992 RMK A01 T03250041  RH  017%=      5-min Rain = 0
KREE 170010Z 19005KT 32/03 A2992 RMK A01 T03240031  RH  016%=      5-min Rain = 0
KREE 170015Z 15005KT 32/03 A2992 RMK A01 T03210029  RH  016%=      5-min Rain = 0
KREE 170020Z 19007KT 32/03 A2992 RMK A01 T03220031  RH  016%=      5-min Rain = 0
KREE 170025Z 22005KT 32/04 A2992 RMK A01 T03190036  RH  017%=      5-min Rain = 0
KREE 170030Z 21004KT 32/03 A2992 RMK A01 T03200034  RH  017%=      5-min Rain = 0
KREE 170035Z 12010KT 32/07 A2992 RMK A01 T03180071  RH  022%=      5-min Rain = 0
KREE 170040Z 13010KT 31/08 A2992 RMK A01 T03080081  RH  025%=      5-min Rain = 0
KREE 170045Z 13011KT 31/08 A2992 RMK A01 T03070083  RH  025%=      5-min Rain = 0
KREE 170050Z 13011KT 31/08 A2992 RMK A01 T03070083  RH  025%=      5-min Rain = 0
KREE 170055Z 13012KT 30/09 A2992 RMK A01 T03040086  RH  026%=      5-min Rain = 0
KREE 170100Z 13012KT 30/09 A2992 RMK A01 T03030087  RH  026%=      5-min Rain = 0
KREE 170105Z 12014G20KT 30/09 A2992 RMK A01 T03000089  RH  027%=      5-min Rain = 0
KREE 170110Z 12017G22KT 30/09 A2992 RMK A01 T02960091  RH  028%=      5-min Rain = 0
KREE 170115Z 12017KT 29/09 A2992 RMK A01 T02930092  RH  029%=      5-min Rain = 0
KREE 170120Z 12015KT 29/09 A2992 RMK A01 T02920087  RH  028%=      5-min Rain = 0
KREE 170125Z 12015KT 29/09 A2992 RMK A01 T02890087  RH  029%=      5-min Rain = 0
KREE 170130Z 12015KT 29/09 A2992 RMK A01 T02870088  RH  029%=      5-min Rain = 0
KREE 170135Z 12016G21KT 29/09 A2993 RMK A01 T02850089  RH  030%=      5-min Rain = 0
KREE 170140Z 11018KT 28/09 A2993 RMK A01 T02800092  RH  031%=      5-min Rain = 0
KREE 170145Z 11019G24KT 28/09 A2993 RMK A01 T02770094  RH  032%=      5-min Rain = 0
KREE 170150Z 12019G25KT 28/09 A2993 RMK A01 T02750094  RH  033%=      5-min Rain = 0
KREE 170155Z 12021G27KT 27/10 A2994 RMK A01 T02730095  RH  033%=      5-min Rain = 0
KREE 170200Z 12020G27KT 27/10 A2994 RMK A01 T02720096  RH  034%=      5-min Rain = 0
KREE 170205Z 11016KT 27/10 A2994 RMK A01 T02690097  RH  034%=      5-min Rain = 0
KREE 170210Z 12020G28KT 27/10 A2994 RMK A01 T02680098  RH  035%=      5-min Rain = 0
KREE 170215Z 12019G24KT 27/10 A2994 RMK A01 T02670098  RH  035%=      5-min Rain = 0
KREE 170220Z 12019G24KT 27/10 A2995 RMK A01 T02660098  RH  035%=      5-min Rain = 0
KREE 170225Z 12019G24KT 27/10 A2995 RMK A01 T02650099  RH  036%=      5-min Rain = 0
KREE 170230Z 12019KT 26/10 A2995 RMK A01 T02640100  RH  036%=      5-min Rain = 0
KREE 170235Z 12019G24KT 26/10 A2995 RMK A01 T02630102  RH  037%=      5-min Rain = 0
KREE 170240Z 12017G22KT 26/10 A2996 RMK A01 T02620102  RH  037%=      5-min Rain = 0
KREE 170245Z 12018G24KT 26/10 A2996 RMK A01 T02610104  RH  038%=      5-min Rain = 0
KREE 170250Z 12017G22KT 26/10 A2996 RMK A01 T02590104  RH  038%=      5-min Rain = 0
KREE 170255Z 12018KT 26/10 A2996 RMK A01 T02580104  RH  039%=      5-min Rain = 0
KREE 170300Z 12018KT 26/11 A2996 RMK A01 T02570105  RH  039%=      5-min Rain = 0
KREE 170305Z 12018G23KT 26/11 A2996 RMK A01 T02570105  RH  039%=      5-min Rain = 0
KREE 170310Z 12018KT 26/11 A2997 RMK A01 T02560105  RH  039%=      5-min Rain = 0
KREE 170315Z 12016KT 26/11 A2997 RMK A01 T02550105  RH  040%=      5-min Rain = 0
KREE 170320Z 13015G21KT 25/11 A2997 RMK A01 T02530105  RH  040%=      5-min Rain = 0
KREE 170325Z 13017G22KT 25/11 A2998 RMK A01 T02520105  RH  040%=      5-min Rain = 0
KREE 170330Z 13016KT 25/11 A2998 RMK A01 T02510105  RH  040%=      5-min Rain = 0
KREE 170335Z 13014KT 25/11 A2998 RMK A01 T02490106  RH  041%=      5-min Rain = 0
KREE 170340Z 13015KT 25/11 A2998 RMK A01 T02480106  RH  042%=      5-min Rain = 0
KREE 170345Z 13016G21KT 25/11 A2998 RMK A01 T02470107  RH  042%=      5-min Rain = 0
KREE 170350Z 13015KT 25/11 A2998 RMK A01 T02470107  RH  042%=      5-min Rain = 0
KREE 170355Z 13017KT 25/11 A2998 RMK A01 T02470108  RH  042%=      5-min Rain = 0
KREE 170400Z 13016KT 25/11 A2998 RMK A01 T02470108  RH  042%=      5-min Rain = 0
KREE 170405Z 13015G21KT 25/11 A2998 RMK A01 T02460108  RH  043%=      5-min Rain = 0
KREE 170410Z 13015G20KT 25/11 A2998 RMK A01 T02450108  RH  043%=      5-min Rain = 0
KREE 170415Z 13016G21KT 24/11 A2998 RMK A01 T02440108  RH  043%=      5-min Rain = 0
KREE 170420Z 13016G23KT 24/11 A2998 RMK A01 T02430107  RH  043%=      5-min Rain = 0
KREE 170425Z 13017G23KT 24/11 A2999 RMK A01 T02430106  RH  043%=      5-min Rain = 0
KREE 170430Z 13016G21KT 24/11 A2999 RMK A01 T02410106  RH  043%=      5-min Rain = 0
KREE 170435Z 13016G22KT 24/11 A2999 RMK A01 T02410105  RH  043%=      5-min Rain = 0
KREE 170440Z 13015KT 24/11 A2999 RMK A01 T02400105  RH  043%=      5-min Rain = 0
KREE 170445Z 13014KT 24/10 A2999 RMK A01 T02380104  RH  043%=      5-min Rain = 0
KREE 170450Z 13015KT 24/11 A2999 RMK A01 T02370105  RH  044%=      5-min Rain = 0
KREE 170455Z 13015G21KT 24/11 A2998 RMK A01 T02360106  RH  045%=      5-min Rain = 0

Page generated in 0.0098 seconds.